sensor_id;sensor_type;location;lat;lon;timestamp;pressure;altitude;pressure_sealevel;temperature;humidity
63552;BME280;49698;48.072;7.800;2022-12-08T00:01:23;99104.97;;;0.26;90.32
63552;BME280;49698;48.072;7.800;2022-12-08T00:03:52;99100.13;;;0.22;90.32
63552;BME280;49698;48.072;7.800;2022-12-08T00:06:25;99096.31;;;0.18;90.49
63552;BME280;49698;48.072;7.800;2022-12-08T00:09:17;99092.50;;;0.14;90.23
63552;BME280;49698;48.072;7.800;2022-12-08T00:11:56;99086.66;;;0.12;90.67
63552;BME280;49698;48.072;7.800;2022-12-08T00:14:26;99080.22;;;0.08;90.74
63552;BME280;49698;48.072;7.800;2022-12-08T00:16:54;99086.50;;;0.07;90.55
63552;BME280;49698;48.072;7.800;2022-12-08T00:19:23;99079.84;;;0.05;90.85
63552;BME280;49698;48.072;7.800;2022-12-08T00:21:53;99078.66;;;0.01;90.93
63552;BME280;49698;48.072;7.800;2022-12-08T00:24:23;99068.75;;;-0.04;90.86
63552;BME280;49698;48.072;7.800;2022-12-08T00:26:51;99073.69;;;-0.08;91.14
63552;BME280;49698;48.072;7.800;2022-12-08T00:29:20;99076.53;;;-0.09;90.73
63552;BME280;49698;48.072;7.800;2022-12-08T00:31:49;99075.13;;;-0.12;91.17
63552;BME280;49698;48.072;7.800;2022-12-08T00:34:17;99064.00;;;-0.14;91.05
63552;BME280;49698;48.072;7.800;2022-12-08T00:36:45;99065.22;;;-0.16;91.07
63552;BME280;49698;48.072;7.800;2022-12-08T00:39:16;99067.50;;;-0.20;91.00
63552;BME280;49698;48.072;7.800;2022-12-08T00:41:44;99065.78;;;-0.26;91.15
63552;BME280;49698;48.072;7.800;2022-12-08T00:44:28;99058.50;;;-0.31;91.26
63552;BME280;49698;48.072;7.800;2022-12-08T00:46:57;99056.31;;;-0.34;91.33
63552;BME280;49698;48.072;7.800;2022-12-08T00:49:25;99062.81;;;-0.36;91.47
63552;BME280;49698;48.072;7.800;2022-12-08T00:51:53;99057.16;;;-0.40;91.47
63552;BME280;49698;48.072;7.800;2022-12-08T00:54:22;99058.19;;;-0.41;91.74
63552;BME280;49698;48.072;7.800;2022-12-08T00:56:50;99057.59;;;-0.43;91.44
63552;BME280;49698;48.072;7.800;2022-12-08T00:59:18;99058.63;;;-0.44;91.60
63552;BME280;49698;48.072;7.800;2022-12-08T01:01:47;99057.03;;;-0.45;92.05
63552;BME280;49698;48.072;7.800;2022-12-08T01:04:16;99055.44;;;-0.46;91.39
63552;BME280;49698;48.072;7.800;2022-12-08T01:06:46;99058.50;;;-0.49;91.60
63552;BME280;49698;48.072;7.800;2022-12-08T01:09:15;99050.44;;;-0.54;91.59
63552;BME280;49698;48.072;7.800;2022-12-08T01:11:45;99050.63;;;-0.56;91.84
63552;BME280;49698;48.072;7.800;2022-12-08T01:14:13;99052.47;;;-0.56;91.52
63552;BME280;49698;48.072;7.800;2022-12-08T01:16:42;99055.53;;;-0.59;91.79
63552;BME280;49698;48.072;7.800;2022-12-08T01:19:12;99051.31;;;-0.60;91.70
63552;BME280;49698;48.072;7.800;2022-12-08T01:21:40;99041.16;;;-0.63;91.68
63552;BME280;49698;48.072;7.800;2022-12-08T01:24:09;99043.81;;;-0.63;91.77
63552;BME280;49698;48.072;7.800;2022-12-08T01:26:38;99050.31;;;-0.66;91.69
63552;BME280;49698;48.072;7.800;2022-12-08T01:29:08;99045.69;;;-0.70;91.82
63552;BME280;49698;48.072;7.800;2022-12-08T01:31:36;99048.81;;;-0.73;91.54
63552;BME280;49698;48.072;7.800;2022-12-08T01:34:05;99051.63;;;-0.75;91.81
63552;BME280;49698;48.072;7.800;2022-12-08T01:36:34;99055.50;;;-0.78;91.71
63552;BME280;49698;48.072;7.800;2022-12-08T01:39:06;99062.25;;;-0.82;92.01
63552;BME280;49698;48.072;7.800;2022-12-08T01:41:35;99059.22;;;-0.85;92.16
63552;BME280;49698;48.072;7.800;2022-12-08T01:47:07;99065.16;;;-0.90;92.36
63552;BME280;49698;48.072;7.800;2022-12-08T01:49:35;99058.28;;;-0.91;92.31
63552;BME280;49698;48.072;7.800;2022-12-08T01:52:08;99059.31;;;-0.92;92.40
63552;BME280;49698;48.072;7.800;2022-12-08T01:54:41;99055.66;;;-0.91;92.36
63552;BME280;49698;48.072;7.800;2022-12-08T01:57:14;99054.03;;;-0.92;92.35
63552;BME280;49698;48.072;7.800;2022-12-08T01:59:46;99050.59;;;-0.92;92.20
63552;BME280;49698;48.072;7.800;2022-12-08T02:02:16;99053.44;;;-0.94;91.93
63552;BME280;49698;48.072;7.800;2022-12-08T02:04:44;99049.19;;;-0.95;92.20
63552;BME280;49698;48.072;7.800;2022-12-08T02:07:13;99042.50;;;-0.98;92.31
63552;BME280;49698;48.072;7.800;2022-12-08T02:09:43;99048.22;;;-1.01;92.03
63552;BME280;49698;48.072;7.800;2022-12-08T02:12:12;99043.97;;;-1.02;92.16
63552;BME280;49698;48.072;7.800;2022-12-08T02:14:40;99044.19;;;-1.03;92.46
63552;BME280;49698;48.072;7.800;2022-12-08T02:17:20;99045.22;;;-1.04;92.17
63552;BME280;49698;48.072;7.800;2022-12-08T02:20:14;99043.81;;;-1.07;92.07
63552;BME280;49698;48.072;7.800;2022-12-08T02:22:51;99045.03;;;-1.09;92.14
63552;BME280;49698;48.072;7.800;2022-12-08T02:25:26;99035.09;;;-1.07;92.46
63552;BME280;49698;48.072;7.800;2022-12-08T02:28:05;99035.28;;;-1.09;92.49
63552;BME280;49698;48.072;7.800;2022-12-08T02:30:42;99040.00;;;-1.11;92.23
63552;BME280;49698;48.072;7.800;2022-12-08T02:33:43;99035.75;;;-1.12;92.47
63552;BME280;49698;48.072;7.800;2022-12-08T02:36:19;99029.63;;;-1.12;92.72
63552;BME280;49698;48.072;7.800;2022-12-08T02:38:55;99030.47;;;-1.12;92.31
63552;BME280;49698;48.072;7.800;2022-12-08T02:41:35;99025.38;;;-1.13;92.54
63552;BME280;49698;48.072;7.800;2022-12-08T02:44:09;99020.34;;;-1.15;92.53
63552;BME280;49698;48.072;7.800;2022-12-08T02:46:45;99020.78;;;-1.18;92.48
63552;BME280;49698;48.072;7.800;2022-12-08T02:49:15;99021.81;;;-1.19;92.61
63552;BME280;49698;48.072;7.800;2022-12-08T02:51:43;99020.63;;;-1.23;92.49
63552;BME280;49698;48.072;7.800;2022-12-08T02:54:12;99022.22;;;-1.22;92.84
63552;BME280;49698;48.072;7.800;2022-12-08T02:57:04;99025.25;;;-1.18;92.97
63552;BME280;49698;48.072;7.800;2022-12-08T02:59:51;99021.38;;;-1.16;92.94
63552;BME280;49698;48.072;7.800;2022-12-08T03:02:41;99022.75;;;-1.13;92.86
63552;BME280;49698;48.072;7.800;2022-12-08T03:05:22;99017.06;;;-1.10;92.51
63552;BME280;49698;48.072;7.800;2022-12-08T03:07:59;99016.63;;;-1.07;92.47
63552;BME280;49698;48.072;7.800;2022-12-08T03:10:33;99020.44;;;-1.03;92.38
63552;BME280;49698;48.072;7.800;2022-12-08T03:13:06;99019.00;;;-0.99;92.52
63552;BME280;49698;48.072;7.800;2022-12-08T03:15:37;99015.13;;;-0.96;92.05
63552;BME280;49698;48.072;7.800;2022-12-08T03:18:07;99023.97;;;-0.91;91.96
63552;BME280;49698;48.072;7.800;2022-12-08T03:20:39;99018.84;;;-0.86;91.95
63552;BME280;49698;48.072;7.800;2022-12-08T03:23:10;99020.03;;;-0.82;91.81
63552;BME280;49698;48.072;7.800;2022-12-08T03:25:42;99014.94;;;-0.77;91.90
63552;BME280;49698;48.072;7.800;2022-12-08T03:28:13;99009.78;;;-0.71;91.63
63552;BME280;49698;48.072;7.800;2022-12-08T03:30:43;98999.16;;;-0.65;91.91
63552;BME280;49698;48.072;7.800;2022-12-08T03:33:17;99000.09;;;-0.59;91.79
63552;BME280;49698;48.072;7.800;2022-12-08T03:35:50;98994.41;;;-0.56;91.55
63552;BME280;49698;48.072;7.800;2022-12-08T03:38:20;98989.50;;;-0.53;91.61
63552;BME280;49698;48.072;7.800;2022-12-08T03:40:49;98982.97;;;-0.50;91.57
63552;BME280;49698;48.072;7.800;2022-12-08T03:43:31;98983.53;;;-0.48;91.34
63552;BME280;49698;48.072;7.800;2022-12-08T03:45:58;98981.94;;;-0.49;91.53
63552;BME280;49698;48.072;7.800;2022-12-08T03:48:26;98976.66;;;-0.49;91.30
63552;BME280;49698;48.072;7.800;2022-12-08T03:50:56;98970.19;;;-0.53;91.34
63552;BME280;49698;48.072;7.800;2022-12-08T03:53:24;98972.25;;;-0.55;91.54
63552;BME280;49698;48.072;7.800;2022-12-08T03:55:52;98964.31;;;-0.55;91.60
63552;BME280;49698;48.072;7.800;2022-12-08T03:58:20;98960.31;;;-0.58;91.62
63552;BME280;49698;48.072;7.800;2022-12-08T04:00:48;98961.56;;;-0.60;91.60
63552;BME280;49698;48.072;7.800;2022-12-08T04:03:16;98960.50;;;-0.59;92.03
63552;BME280;49698;48.072;7.800;2022-12-08T04:05:45;98956.84;;;-0.58;91.58
63552;BME280;49698;48.072;7.800;2022-12-08T04:08:14;98949.97;;;-0.59;91.64
63552;BME280;49698;48.072;7.800;2022-12-08T04:10:42;98947.31;;;-0.59;91.80
63552;BME280;49698;48.072;7.800;2022-12-08T04:13:10;98940.31;;;-0.65;91.98
63552;BME280;49698;48.072;7.800;2022-12-08T04:15:38;98948.41;;;-0.67;91.84
63552;BME280;49698;48.072;7.800;2022-12-08T04:18:06;98938.66;;;-0.66;91.92
63552;BME280;49698;48.072;7.800;2022-12-08T04:20:37;98946.81;;;-0.68;91.93
63552;BME280;49698;48.072;7.800;2022-12-08T04:23:05;98942.72;;;-0.64;92.05
63552;BME280;49698;48.072;7.800;2022-12-08T04:25:35;98942.47;;;-0.62;91.89
63552;BME280;49698;48.072;7.800;2022-12-08T04:28:04;98935.16;;;-0.60;91.90
63552;BME280;49698;48.072;7.800;2022-12-08T04:30:32;98931.47;;;-0.59;91.84
63552;BME280;49698;48.072;7.800;2022-12-08T04:33:01;98931.47;;;-0.59;91.84
63552;BME280;49698;48.072;7.800;2022-12-08T04:35:29;98939.41;;;-0.59;91.72
63552;BME280;49698;48.072;7.800;2022-12-08T04:37:57;98930.91;;;-0.61;91.59
63552;BME280;49698;48.072;7.800;2022-12-08T04:40:25;98932.38;;;-0.65;91.81
63552;BME280;49698;48.072;7.800;2022-12-08T04:42:54;98918.03;;;-0.69;91.70
63552;BME280;49698;48.072;7.800;2022-12-08T04:45:22;98923.38;;;-0.76;91.89
63552;BME280;49698;48.072;7.800;2022-12-08T04:47:50;98930.31;;;-0.82;92.42
63552;BME280;49698;48.072;7.800;2022-12-08T04:50:18;98919.06;;;-0.89;92.44
63552;BME280;49698;48.072;7.800;2022-12-08T04:52:46;98922.56;;;-0.95;92.85
63552;BME280;49698;48.072;7.800;2022-12-08T04:55:14;98922.41;;;-1.00;92.84
63552;BME280;49698;48.072;7.800;2022-12-08T04:57:43;98920.22;;;-1.03;92.86
63552;BME280;49698;48.072;7.800;2022-12-08T05:00:13;98916.41;;;-1.07;92.89
63552;BME280;49698;48.072;7.800;2022-12-08T05:02:41;98915.22;;;-1.11;93.32
63552;BME280;49698;48.072;7.800;2022-12-08T05:05:09;98917.69;;;-1.16;93.16
63552;BME280;49698;48.072;7.800;2022-12-08T05:07:37;98916.97;;;-1.24;93.56
63552;BME280;49698;48.072;7.800;2022-12-08T05:10:06;98919.44;;;-1.29;93.82
63552;BME280;49698;48.072;7.800;2022-12-08T05:12:35;98925.13;;;-1.32;93.78
63552;BME280;49698;48.072;7.800;2022-12-08T05:15:03;98927.19;;;-1.34;93.73
63552;BME280;49698;48.072;7.800;2022-12-08T05:17:33;98920.31;;;-1.35;93.49
63552;BME280;49698;48.072;7.800;2022-12-08T05:20:01;98916.88;;;-1.35;93.60
63552;BME280;49698;48.072;7.800;2022-12-08T05:22:29;98912.41;;;-1.35;93.72
63552;BME280;49698;48.072;7.800;2022-12-08T05:24:57;98913.41;;;-1.36;93.87
63552;BME280;49698;48.072;7.800;2022-12-08T05:27:25;98913.88;;;-1.39;93.72
63552;BME280;49698;48.072;7.800;2022-12-08T05:29:53;98909.59;;;-1.40;94.14
63552;BME280;49698;48.072;7.800;2022-12-08T05:32:21;98906.97;;;-1.40;93.98
63552;BME280;49698;48.072;7.800;2022-12-08T05:34:50;98905.97;;;-1.39;93.90
63552;BME280;49698;48.072;7.800;2022-12-08T05:37:18;98906.97;;;-1.40;94.01
63552;BME280;49698;48.072;7.800;2022-12-08T05:39:46;98904.56;;;-1.41;93.77
63552;BME280;49698;48.072;7.800;2022-12-08T05:42:14;98900.53;;;-1.44;93.45
63552;BME280;49698;48.072;7.800;2022-12-08T05:44:45;98898.34;;;-1.47;93.70
63552;BME280;49698;48.072;7.800;2022-12-08T05:47:12;98905.41;;;-1.48;93.88
63552;BME280;49698;48.072;7.800;2022-12-08T05:49:40;98904.63;;;-1.48;93.79
63552;BME280;49698;48.072;7.800;2022-12-08T05:52:10;98899.34;;;-1.48;93.92
63552;BME280;49698;48.072;7.800;2022-12-08T05:54:38;98902.19;;;-1.50;93.91
63552;BME280;49698;48.072;7.800;2022-12-08T05:57:06;98904.03;;;-1.50;93.82
63552;BME280;49698;48.072;7.800;2022-12-08T05:59:34;98903.44;;;-1.52;93.89
63552;BME280;49698;48.072;7.800;2022-12-08T06:02:03;98905.50;;;-1.54;93.76
63552;BME280;49698;48.072;7.800;2022-12-08T06:04:31;98904.31;;;-1.58;94.12
63552;BME280;49698;48.072;7.800;2022-12-08T06:06:59;98904.75;;;-1.61;94.18
63552;BME280;49698;48.072;7.800;2022-12-08T06:09:28;98907.22;;;-1.66;94.07
63552;BME280;49698;48.072;7.800;2022-12-08T06:11:56;98915.31;;;-1.68;94.50
63552;BME280;49698;48.072;7.800;2022-12-08T06:14:24;98913.72;;;-1.69;94.57
63552;BME280;49698;48.072;7.800;2022-12-08T06:16:52;98910.84;;;-1.67;94.08
63552;BME280;49698;48.072;7.800;2022-12-08T06:19:20;98910.44;;;-1.64;94.13
63552;BME280;49698;48.072;7.800;2022-12-08T06:21:48;98910.00;;;-1.61;94.73
63552;BME280;49698;48.072;7.800;2022-12-08T06:24:16;98904.88;;;-1.56;94.09
63552;BME280;49698;48.072;7.800;2022-12-08T06:26:45;98912.75;;;-1.50;93.92
63552;BME280;49698;48.072;7.800;2022-12-08T06:29:13;98915.53;;;-1.44;93.82
63552;BME280;49698;48.072;7.800;2022-12-08T06:31:42;98912.25;;;-1.40;93.85
63552;BME280;49698;48.072;7.800;2022-12-08T06:34:10;98907.34;;;-1.36;93.83
63552;BME280;49698;48.072;7.800;2022-12-08T06:36:38;98906.34;;;-1.35;93.49
63552;BME280;49698;48.072;7.800;2022-12-08T06:39:05;98906.69;;;-1.32;93.38
63552;BME280;49698;48.072;7.800;2022-12-08T06:41:33;98900.97;;;-1.29;93.27
63552;BME280;49698;48.072;7.800;2022-12-08T06:44:23;98899.97;;;-1.28;93.35
63552;BME280;49698;48.072;7.800;2022-12-08T06:46:51;98891.03;;;-1.27;93.17
63552;BME280;49698;48.072;7.800;2022-12-08T06:49:20;98894.25;;;-1.25;93.45
63552;BME280;49698;48.072;7.800;2022-12-08T06:51:48;98894.25;;;-1.25;93.38
63552;BME280;49698;48.072;7.800;2022-12-08T06:54:16;98893.25;;;-1.24;93.32
63552;BME280;49698;48.072;7.800;2022-12-08T06:56:44;98892.22;;;-1.23;93.23
63552;BME280;49698;48.072;7.800;2022-12-08T06:59:12;98885.72;;;-1.20;93.24
63552;BME280;49698;48.072;7.800;2022-12-08T07:01:41;98887.31;;;-1.19;93.36
63552;BME280;49698;48.072;7.800;2022-12-08T07:04:09;98894.56;;;-1.14;93.62
63552;BME280;49698;48.072;7.800;2022-12-08T07:06:37;98889.84;;;-1.12;93.58
63552;BME280;49698;48.072;7.800;2022-12-08T07:09:06;98893.69;;;-1.08;93.25
63552;BME280;49698;48.072;7.800;2022-12-08T07:11:33;98893.69;;;-1.08;93.11
63552;BME280;49698;48.072;7.800;2022-12-08T07:14:02;98890.03;;;-1.07;93.22
63552;BME280;49698;48.072;7.800;2022-12-08T07:16:30;98900.34;;;-1.06;93.19
63552;BME280;49698;48.072;7.800;2022-12-08T07:18:59;98906.00;;;-1.02;93.27
63552;BME280;49698;48.072;7.800;2022-12-08T07:21:27;98895.22;;;-1.01;93.47
63552;BME280;49698;48.072;7.800;2022-12-08T07:23:55;98902.91;;;-0.99;93.08
63552;BME280;49698;48.072;7.800;2022-12-08T07:26:24;98905.69;;;-0.94;92.99
63552;BME280;49698;48.072;7.800;2022-12-08T07:28:52;98904.22;;;-0.90;92.96
63552;BME280;49698;48.072;7.800;2022-12-08T07:31:22;98914.94;;;-0.85;92.76
63552;BME280;49698;48.072;7.800;2022-12-08T07:33:51;98916.13;;;-0.81;92.62
63552;BME280;49698;48.072;7.800;2022-12-08T07:36:21;98908.34;;;-0.76;92.45
63552;BME280;49698;48.072;7.800;2022-12-08T07:38:50;98915.81;;;-0.72;92.44
63552;BME280;49698;48.072;7.800;2022-12-08T07:41:22;98915.16;;;-0.68;92.26
63552;BME280;49698;48.072;7.800;2022-12-08T07:43:51;98910.22;;;-0.64;92.26
63552;BME280;49698;48.072;7.800;2022-12-08T07:46:22;98909.00;;;-0.62;92.12
63552;BME280;49698;48.072;7.800;2022-12-08T07:48:51;98906.47;;;-0.57;92.08
63552;BME280;49698;48.072;7.800;2022-12-08T07:51:20;98907.28;;;-0.56;91.94
63552;BME280;49698;48.072;7.800;2022-12-08T07:53:49;98909.69;;;-0.55;92.00
63552;BME280;49698;48.072;7.800;2022-12-08T07:56:20;98905.69;;;-0.57;92.11
63552;BME280;49698;48.072;7.800;2022-12-08T07:58:48;98911.75;;;-0.57;92.11
63552;BME280;49698;48.072;7.800;2022-12-08T08:01:25;98908.88;;;-0.55;92.10
63552;BME280;49698;48.072;7.800;2022-12-08T08:03:55;98910.53;;;-0.54;92.26
63552;BME280;49698;48.072;7.800;2022-12-08T08:06:24;98902.72;;;-0.49;92.13
63552;BME280;49698;48.072;7.800;2022-12-08T08:08:52;98901.25;;;-0.45;91.95
63552;BME280;49698;48.072;7.800;2022-12-08T08:11:20;98900.94;;;-0.37;91.80
63552;BME280;49698;48.072;7.800;2022-12-08T08:13:49;98903.53;;;-0.18;91.42
63552;BME280;49698;48.072;7.800;2022-12-08T08:16:18;98901.13;;;-0.08;91.02
63552;BME280;49698;48.072;7.800;2022-12-08T08:18:47;98900.47;;;-0.04;90.63
63552;BME280;49698;48.072;7.800;2022-12-08T08:21:16;98900.84;;;0.00;90.58
63552;BME280;49698;48.072;7.800;2022-12-08T08:24:06;98897.28;;;0.06;90.64
63552;BME280;49698;48.072;7.800;2022-12-08T08:26:35;98902.22;;;0.14;90.54
63552;BME280;49698;48.072;7.800;2022-12-08T08:29:03;98900.88;;;0.23;90.09
63552;BME280;49698;48.072;7.800;2022-12-08T08:31:31;98898.47;;;0.34;89.95
63552;BME280;49698;48.072;7.800;2022-12-08T08:33:59;98897.22;;;0.48;89.84
63552;BME280;49698;48.072;7.800;2022-12-08T08:36:31;98887.19;;;0.73;89.23
63552;BME280;49698;48.072;7.800;2022-12-08T08:39:00;98883.50;;;0.98;88.33
63552;BME280;49698;48.072;7.800;2022-12-08T08:41:29;98878.38;;;1.20;87.63
63552;BME280;49698;48.072;7.800;2022-12-08T08:43:57;98885.94;;;1.40;86.56
63552;BME280;49698;48.072;7.800;2022-12-08T08:46:26;98886.00;;;1.57;86.15
63552;BME280;49698;48.072;7.800;2022-12-08T08:48:54;98896.41;;;1.75;85.65
63552;BME280;49698;48.072;7.800;2022-12-08T08:51:22;98892.06;;;1.86;85.16
63552;BME280;49698;48.072;7.800;2022-12-08T08:53:50;98892.97;;;1.91;85.13
63552;BME280;49698;48.072;7.800;2022-12-08T08:56:19;98890.41;;;1.96;85.07
63552;BME280;49698;48.072;7.800;2022-12-08T08:58:51;98887.13;;;2.06;84.47
63552;BME280;49698;48.072;7.800;2022-12-08T09:01:21;98875.56;;;2.12;84.33
63552;BME280;49698;48.072;7.800;2022-12-08T09:03:50;98880.63;;;2.31;83.92
63552;BME280;49698;48.072;7.800;2022-12-08T09:06:19;98878.78;;;2.48;82.97
63552;BME280;49698;48.072;7.800;2022-12-08T09:08:48;98881.78;;;2.74;82.25
63552;BME280;49698;48.072;7.800;2022-12-08T09:11:16;98878.19;;;3.02;81.16
63552;BME280;49698;48.072;7.800;2022-12-08T09:13:46;98877.38;;;3.23;80.13
63552;BME280;49698;48.072;7.800;2022-12-08T09:16:17;98881.03;;;3.39;79.45
63552;BME280;49698;48.072;7.800;2022-12-08T09:18:45;98872.25;;;3.60;78.66
63552;BME280;49698;48.072;7.800;2022-12-08T09:21:16;98871.28;;;3.72;78.22
63552;BME280;49698;48.072;7.800;2022-12-08T09:23:48;98872.09;;;3.72;78.28
63552;BME280;49698;48.072;7.800;2022-12-08T09:26:17;98869.38;;;3.67;78.18
63552;BME280;49698;48.072;7.800;2022-12-08T09:28:53;98866.06;;;3.55;77.88
63552;BME280;49698;48.072;7.800;2022-12-08T09:31:23;98869.91;;;3.42;78.22
63552;BME280;49698;48.072;7.800;2022-12-08T09:33:51;98871.38;;;3.33;78.25
63552;BME280;49698;48.072;7.800;2022-12-08T09:36:20;98876.91;;;3.26;78.41
63552;BME280;49698;48.072;7.800;2022-12-08T09:38:48;98883.63;;;3.12;78.54
63552;BME280;49698;48.072;7.800;2022-12-08T09:41:24;98873.38;;;2.99;78.75
63552;BME280;49698;48.072;7.800;2022-12-08T09:44:08;98857.88;;;2.90;79.26
63552;BME280;49698;48.072;7.800;2022-12-08T09:46:46;98852.25;;;2.87;79.03
63552;BME280;49698;48.072;7.800;2022-12-08T09:49:18;98856.84;;;2.75;78.95
63552;BME280;49698;48.072;7.800;2022-12-08T09:51:48;98853.50;;;2.62;79.34
63552;BME280;49698;48.072;7.800;2022-12-08T09:54:18;98851.75;;;2.51;79.42
63552;BME280;49698;48.072;7.800;2022-12-08T09:56:50;98842.13;;;2.45;79.55
63552;BME280;49698;48.072;7.800;2022-12-08T09:59:22;98843.38;;;2.59;79.37
63552;BME280;49698;48.072;7.800;2022-12-08T10:01:53;98851.47;;;2.69;79.02
63552;BME280;49698;48.072;7.800;2022-12-08T10:04:23;98834.81;;;2.74;78.66
63552;BME280;49698;48.072;7.800;2022-12-08T10:06:59;98833.53;;;3.21;77.65
63552;BME280;49698;48.072;7.800;2022-12-08T10:09:36;98838.06;;;3.74;76.19
63552;BME280;49698;48.072;7.800;2022-12-08T10:12:13;98832.72;;;4.01;74.98
63552;BME280;49698;48.072;7.800;2022-12-08T10:14:46;98820.13;;;4.19;74.34
63552;BME280;49698;48.072;7.800;2022-12-08T10:17:22;98818.66;;;4.43;73.57
63552;BME280;49698;48.072;7.800;2022-12-08T10:19:55;98821.34;;;4.43;73.76
63552;BME280;49698;48.072;7.800;2022-12-08T10:22:25;98820.25;;;4.39;73.88
63552;BME280;49698;48.072;7.800;2022-12-08T10:24:57;98815.59;;;4.61;73.66
63552;BME280;49698;48.072;7.800;2022-12-08T10:27:26;98817.91;;;5.00;72.40
63552;BME280;49698;48.072;7.800;2022-12-08T10:29:55;98816.34;;;5.14;71.82
63552;BME280;49698;48.072;7.800;2022-12-08T10:32:32;98824.44;;;5.35;71.30
63552;BME280;49698;48.072;7.800;2022-12-08T10:35:04;98812.97;;;5.45;71.04
63552;BME280;49698;48.072;7.800;2022-12-08T10:37:33;98812.41;;;5.37;71.14
63552;BME280;49698;48.072;7.800;2022-12-08T10:40:08;98816.38;;;5.20;71.92
63552;BME280;49698;48.072;7.800;2022-12-08T10:42:39;98809.41;;;5.08;72.07
63552;BME280;49698;48.072;7.800;2022-12-08T10:45:19;98798.19;;;4.96;72.31
63552;BME280;49698;48.072;7.800;2022-12-08T10:47:58;98794.38;;;4.82;72.67
63552;BME280;49698;48.072;7.800;2022-12-08T10:50:30;98792.31;;;4.94;72.72
63552;BME280;49698;48.072;7.800;2022-12-08T10:53:00;98787.00;;;4.99;72.63
63552;BME280;49698;48.072;7.800;2022-12-08T10:55:40;98778.53;;;5.12;72.75
63552;BME280;49698;48.072;7.800;2022-12-08T10:58:29;98775.38;;;5.31;71.75
63552;BME280;49698;48.072;7.800;2022-12-08T11:01:02;98772.19;;;5.44;71.76
63552;BME280;49698;48.072;7.800;2022-12-08T11:03:35;98767.38;;;5.41;71.26
63552;BME280;49698;48.072;7.800;2022-12-08T11:06:15;98767.31;;;5.05;72.34
63552;BME280;49698;48.072;7.800;2022-12-08T11:08:48;98760.56;;;4.77;72.98
63552;BME280;49698;48.072;7.800;2022-12-08T11:11:18;98761.00;;;4.54;74.15
63552;BME280;49698;48.072;7.800;2022-12-08T11:13:50;98755.16;;;4.62;74.07
63552;BME280;49698;48.072;7.800;2022-12-08T11:16:18;98748.03;;;4.78;73.64
63552;BME280;49698;48.072;7.800;2022-12-08T11:18:55;98743.34;;;5.00;72.92
63552;BME280;49698;48.072;7.800;2022-12-08T11:21:33;98738.81;;;5.01;71.86
63552;BME280;49698;48.072;7.800;2022-12-08T11:24:22;98731.56;;;4.91;72.73
63552;BME280;49698;48.072;7.800;2022-12-08T11:26:53;98720.34;;;4.79;72.45
63552;BME280;49698;48.072;7.800;2022-12-08T11:29:22;98719.84;;;4.82;72.83
63552;BME280;49698;48.072;7.800;2022-12-08T11:31:52;98718.28;;;5.06;71.56
63552;BME280;49698;48.072;7.800;2022-12-08T11:34:32;98721.00;;;5.37;70.67
63552;BME280;49698;48.072;7.800;2022-12-08T11:37:03;98714.34;;;5.65;70.09
63552;BME280;49698;48.072;7.800;2022-12-08T11:39:34;98706.63;;;5.79;69.38
63552;BME280;49698;48.072;7.800;2022-12-08T11:42:09;98714.63;;;5.58;69.39
63552;BME280;49698;48.072;7.800;2022-12-08T11:44:40;98712.22;;;5.31;70.22
63552;BME280;49698;48.072;7.800;2022-12-08T11:47:13;98708.19;;;5.13;70.93
63552;BME280;49698;48.072;7.800;2022-12-08T11:49:46;98711.94;;;5.12;70.76
63552;BME280;49698;48.072;7.800;2022-12-08T11:52:19;98715.13;;;5.30;70.30
63552;BME280;49698;48.072;7.800;2022-12-08T11:54:51;98711.97;;;5.48;69.69
63552;BME280;49698;48.072;7.800;2022-12-08T11:57:23;98714.63;;;5.58;69.44
63552;BME280;49698;48.072;7.800;2022-12-08T11:59:55;98716.22;;;5.75;68.83
63552;BME280;49698;48.072;7.800;2022-12-08T12:02:25;98712.75;;;6.00;68.32
63552;BME280;49698;48.072;7.800;2022-12-08T12:05:00;98706.56;;;6.25;67.33
63552;BME280;49698;48.072;7.800;2022-12-08T12:07:38;98692.66;;;6.38;66.95
63552;BME280;49698;48.072;7.800;2022-12-08T12:10:22;98687.88;;;6.35;66.92
63552;BME280;49698;48.072;7.800;2022-12-08T12:13:06;98683.91;;;6.17;67.17
63552;BME280;49698;48.072;7.800;2022-12-08T12:18:43;98690.63;;;5.69;68.60
63552;BME280;49698;48.072;7.800;2022-12-08T12:21:17;98693.84;;;5.50;68.84
63552;BME280;49698;48.072;7.800;2022-12-08T12:23:51;98681.84;;;5.27;69.52
63552;BME280;49698;48.072;7.800;2022-12-08T12:26:22;98671.97;;;5.12;70.42
63552;BME280;49698;48.072;7.800;2022-12-08T12:28:55;98662.09;;;5.03;70.79
63552;BME280;49698;48.072;7.800;2022-12-08T12:31:27;98669.03;;;5.04;70.88
63552;BME280;49698;48.072;7.800;2022-12-08T12:34:05;98664.50;;;5.04;70.63
63552;BME280;49698;48.072;7.800;2022-12-08T12:36:48;98663.44;;;5.00;70.95
63552;BME280;49698;48.072;7.800;2022-12-08T12:39:18;98658.63;;;4.97;70.83
63552;BME280;49698;48.072;7.800;2022-12-08T12:41:50;98652.50;;;4.97;71.09
63552;BME280;49698;48.072;7.800;2022-12-08T12:44:38;98658.06;;;4.95;71.12
63552;BME280;49698;48.072;7.800;2022-12-08T12:47:14;98663.66;;;4.83;71.68
63552;BME280;49698;48.072;7.800;2022-12-08T12:50:07;98662.81;;;4.62;72.36
63552;BME280;49698;48.072;7.800;2022-12-08T12:52:46;98660.94;;;4.58;72.95
63552;BME280;49698;48.072;7.800;2022-12-08T12:58:37;98664.91;;;4.50;73.33
63552;BME280;49698;48.072;7.800;2022-12-08T13:04:16;98663.22;;;4.29;74.47
63552;BME280;49698;48.072;7.800;2022-12-08T13:06:47;98660.03;;;4.32;74.30
63552;BME280;49698;48.072;7.800;2022-12-08T13:09:19;98653.13;;;4.36;74.23
63552;BME280;49698;48.072;7.800;2022-12-08T13:11:50;98646.50;;;4.38;74.54
63552;BME280;49698;48.072;7.800;2022-12-08T13:14:28;98655.81;;;4.41;74.30
63552;BME280;49698;48.072;7.800;2022-12-08T13:16:58;98651.31;;;4.41;74.30
63552;BME280;49698;48.072;7.800;2022-12-08T13:19:31;98656.34;;;4.38;74.55
63552;BME280;49698;48.072;7.800;2022-12-08T13:22:01;98651.03;;;4.38;74.28
63552;BME280;49698;48.072;7.800;2022-12-08T13:24:33;98644.63;;;4.34;74.70
63552;BME280;49698;48.072;7.800;2022-12-08T13:27:34;98644.63;;;4.34;74.67
63552;BME280;49698;48.072;7.800;2022-12-08T13:30:38;98650.47;;;4.36;74.62
63552;BME280;49698;48.072;7.800;2022-12-08T13:33:11;98645.63;;;4.23;74.87
63552;BME280;49698;48.072;7.800;2022-12-08T13:35:48;98641.34;;;4.16;75.32
63552;BME280;49698;48.072;7.800;2022-12-08T13:38:20;98632.28;;;4.17;75.33
63552;BME280;49698;48.072;7.800;2022-12-08T13:40:53;98632.84;;;4.20;75.18